sensor_id;sensor_type;location;lat;lon;timestamp;P1;durP1;ratioP1;P2;durP2;ratioP2
63945;SDS011;50122;56.330;43.838;2023-04-01T00:01:27;7.90;;;5.55;;
63945;SDS011;50122;56.330;43.838;2023-04-01T00:03:54;8.02;;;5.25;;
63945;SDS011;50122;56.330;43.838;2023-04-01T00:06:22;7.97;;;5.32;;
63945;SDS011;50122;56.330;43.838;2023-04-01T00:08:49;10.30;;;5.75;;
63945;SDS011;50122;56.330;43.838;2023-04-01T00:11:16;7.65;;;5.20;;
63945;SDS011;50122;56.330;43.838;2023-04-01T00:13:46;11.05;;;5.50;;
63945;SDS011;50122;56.330;43.838;2023-04-01T00:16:13;7.63;;;4.82;;
63945;SDS011;50122;56.330;43.838;2023-04-01T00:18:47;9.30;;;5.13;;
63945;SDS011;50122;56.330;43.838;2023-04-01T00:21:15;9.20;;;5.32;;
63945;SDS011;50122;56.330;43.838;2023-04-01T00:23:44;11.57;;;5.60;;
63945;SDS011;50122;56.330;43.838;2023-04-01T00:26:11;8.60;;;5.57;;
63945;SDS011;50122;56.330;43.838;2023-04-01T00:28:39;7.75;;;5.53;;
63945;SDS011;50122;56.330;43.838;2023-04-01T00:31:06;9.55;;;5.88;;
63945;SDS011;50122;56.330;43.838;2023-04-01T00:33:34;8.20;;;5.93;;
63945;SDS011;50122;56.330;43.838;2023-04-01T00:36:20;9.55;;;6.20;;
63945;SDS011;50122;56.330;43.838;2023-04-01T00:38:49;8.82;;;5.97;;
63945;SDS011;50122;56.330;43.838;2023-04-01T00:41:17;8.85;;;6.30;;
63945;SDS011;50122;56.330;43.838;2023-04-01T00:43:46;9.45;;;6.40;;
63945;SDS011;50122;56.330;43.838;2023-04-01T00:46:14;9.50;;;6.22;;
63945;SDS011;50122;56.330;43.838;2023-04-01T00:48:51;9.80;;;6.90;;
63945;SDS011;50122;56.330;43.838;2023-04-01T00:51:23;11.00;;;6.50;;
63945;SDS011;50122;56.330;43.838;2023-04-01T00:53:52;9.30;;;6.72;;
63945;SDS011;50122;56.330;43.838;2023-04-01T00:56:27;10.48;;;6.75;;
63945;SDS011;50122;56.330;43.838;2023-04-01T00:59:00;8.20;;;5.78;;
63945;SDS011;50122;56.330;43.838;2023-04-01T01:01:34;10.43;;;6.65;;
63945;SDS011;50122;56.330;43.838;2023-04-01T01:04:03;10.48;;;7.10;;
63945;SDS011;50122;56.330;43.838;2023-04-01T01:09:26;12.02;;;6.95;;
63945;SDS011;50122;56.330;43.838;2023-04-01T01:11:57;9.05;;;6.72;;
63945;SDS011;50122;56.330;43.838;2023-04-01T01:15:01;11.25;;;7.47;;
63945;SDS011;50122;56.330;43.838;2023-04-01T01:23:23;11.45;;;7.45;;
63945;SDS011;50122;56.330;43.838;2023-04-01T01:28:57;11.07;;;7.43;;
63945;SDS011;50122;56.330;43.838;2023-04-01T01:37:03;11.77;;;7.35;;
63945;SDS011;50122;56.330;43.838;2023-04-01T01:39:37;10.80;;;7.32;;
63945;SDS011;50122;56.330;43.838;2023-04-01T01:42:06;10.45;;;7.82;;
63945;SDS011;50122;56.330;43.838;2023-04-01T01:44:36;12.50;;;7.72;;
63945;SDS011;50122;56.330;43.838;2023-04-01T01:47:04;11.23;;;7.10;;
63945;SDS011;50122;56.330;43.838;2023-04-01T01:49:32;10.50;;;7.88;;
63945;SDS011;50122;56.330;43.838;2023-04-01T01:52:00;10.88;;;7.38;;
63945;SDS011;50122;56.330;43.838;2023-04-01T01:54:27;12.25;;;7.97;;
63945;SDS011;50122;56.330;43.838;2023-04-01T01:57:03;11.15;;;8.25;;
63945;SDS011;50122;56.330;43.838;2023-04-01T01:59:37;9.88;;;7.53;;
63945;SDS011;50122;56.330;43.838;2023-04-01T02:02:06;10.48;;;7.20;;
63945;SDS011;50122;56.330;43.838;2023-04-01T02:04:35;10.32;;;7.32;;
63945;SDS011;50122;56.330;43.838;2023-04-01T02:07:10;10.68;;;8.20;;
63945;SDS011;50122;56.330;43.838;2023-04-01T02:09:43;10.27;;;7.32;;
63945;SDS011;50122;56.330;43.838;2023-04-01T02:12:11;11.15;;;7.65;;
63945;SDS011;50122;56.330;43.838;2023-04-01T02:14:50;10.43;;;7.25;;
63945;SDS011;50122;56.330;43.838;2023-04-01T02:17:21;10.00;;;7.30;;
63945;SDS011;50122;56.330;43.838;2023-04-01T02:19:54;11.00;;;7.65;;
63945;SDS011;50122;56.330;43.838;2023-04-01T02:22:26;10.40;;;7.25;;
63945;SDS011;50122;56.330;43.838;2023-04-01T02:24:58;10.48;;;7.55;;
63945;SDS011;50122;56.330;43.838;2023-04-01T02:27:30;9.80;;;7.10;;
63945;SDS011;50122;56.330;43.838;2023-04-01T02:29:57;12.95;;;7.93;;
63945;SDS011;50122;56.330;43.838;2023-04-01T02:32:24;13.15;;;7.43;;
63945;SDS011;50122;56.330;43.838;2023-04-01T02:34:53;10.88;;;7.65;;
63945;SDS011;50122;56.330;43.838;2023-04-01T02:37:20;10.80;;;6.95;;
63945;SDS011;50122;56.330;43.838;2023-04-01T02:39:47;10.35;;;7.57;;
63945;SDS011;50122;56.330;43.838;2023-04-01T02:42:14;12.15;;;7.32;;
63945;SDS011;50122;56.330;43.838;2023-04-01T02:44:41;11.18;;;8.30;;
63945;SDS011;50122;56.330;43.838;2023-04-01T02:47:07;9.70;;;6.85;;
63945;SDS011;50122;56.330;43.838;2023-04-01T02:49:34;9.65;;;6.82;;
63945;SDS011;50122;56.330;43.838;2023-04-01T02:52:01;9.40;;;6.97;;
63945;SDS011;50122;56.330;43.838;2023-04-01T02:54:30;10.57;;;7.40;;
63945;SDS011;50122;56.330;43.838;2023-04-01T02:56:57;9.82;;;7.18;;
63945;SDS011;50122;56.330;43.838;2023-04-01T02:59:24;10.45;;;7.28;;
63945;SDS011;50122;56.330;43.838;2023-04-01T03:01:51;10.38;;;6.82;;
63945;SDS011;50122;56.330;43.838;2023-04-01T03:04:17;9.30;;;6.78;;
63945;SDS011;50122;56.330;43.838;2023-04-01T03:06:44;10.65;;;6.90;;
63945;SDS011;50122;56.330;43.838;2023-04-01T03:09:11;10.52;;;7.60;;
63945;SDS011;50122;56.330;43.838;2023-04-01T03:11:38;11.00;;;7.03;;
63945;SDS011;50122;56.330;43.838;2023-04-01T03:14:04;10.90;;;7.40;;
63945;SDS011;50122;56.330;43.838;2023-04-01T03:16:31;11.90;;;7.65;;
63945;SDS011;50122;56.330;43.838;2023-04-01T03:18:58;12.80;;;7.60;;
63945;SDS011;50122;56.330;43.838;2023-04-01T03:21:25;13.00;;;8.07;;
63945;SDS011;50122;56.330;43.838;2023-04-01T03:23:52;11.35;;;7.95;;
63945;SDS011;50122;56.330;43.838;2023-04-01T03:26:20;10.70;;;7.85;;
63945;SDS011;50122;56.330;43.838;2023-04-01T03:28:47;11.60;;;7.90;;
63945;SDS011;50122;56.330;43.838;2023-04-01T03:31:14;10.75;;;7.63;;
63945;SDS011;50122;56.330;43.838;2023-04-01T03:33:42;10.93;;;8.02;;
63945;SDS011;50122;56.330;43.838;2023-04-01T03:36:09;10.15;;;7.03;;
63945;SDS011;50122;56.330;43.838;2023-04-01T03:38:38;10.27;;;7.18;;
63945;SDS011;50122;56.330;43.838;2023-04-01T03:41:06;11.15;;;7.22;;
63945;SDS011;50122;56.330;43.838;2023-04-01T03:43:32;9.90;;;6.68;;
63945;SDS011;50122;56.330;43.838;2023-04-01T03:45:59;9.82;;;7.20;;
63945;SDS011;50122;56.330;43.838;2023-04-01T03:48:26;10.40;;;7.35;;
63945;SDS011;50122;56.330;43.838;2023-04-01T03:50:53;9.55;;;7.03;;
63945;SDS011;50122;56.330;43.838;2023-04-01T03:53:19;8.85;;;6.85;;
63945;SDS011;50122;56.330;43.838;2023-04-01T03:55:47;10.90;;;7.50;;
63945;SDS011;50122;56.330;43.838;2023-04-01T03:58:14;10.38;;;7.10;;
63945;SDS011;50122;56.330;43.838;2023-04-01T04:00:40;9.50;;;7.15;;
63945;SDS011;50122;56.330;43.838;2023-04-01T04:03:09;9.05;;;6.85;;
63945;SDS011;50122;56.330;43.838;2023-04-01T04:05:36;9.40;;;6.35;;
63945;SDS011;50122;56.330;43.838;2023-04-01T04:08:02;11.85;;;7.35;;
63945;SDS011;50122;56.330;43.838;2023-04-01T04:10:30;9.93;;;7.18;;
63945;SDS011;50122;56.330;43.838;2023-04-01T04:12:56;10.38;;;7.43;;
63945;SDS011;50122;56.330;43.838;2023-04-01T04:15:23;10.32;;;7.68;;
63945;SDS011;50122;56.330;43.838;2023-04-01T04:17:52;10.13;;;7.57;;
63945;SDS011;50122;56.330;43.838;2023-04-01T04:20:19;10.55;;;7.53;;
63945;SDS011;50122;56.330;43.838;2023-04-01T04:22:46;10.55;;;7.60;;
63945;SDS011;50122;56.330;43.838;2023-04-01T04:25:14;12.18;;;8.88;;
63945;SDS011;50122;56.330;43.838;2023-04-01T04:27:41;15.73;;;11.35;;
63945;SDS011;50122;56.330;43.838;2023-04-01T04:30:08;16.80;;;10.48;;
63945;SDS011;50122;56.330;43.838;2023-04-01T04:32:35;12.38;;;9.23;;
63945;SDS011;50122;56.330;43.838;2023-04-01T04:35:02;12.77;;;9.52;;
63945;SDS011;50122;56.330;43.838;2023-04-01T04:37:29;12.02;;;9.05;;
63945;SDS011;50122;56.330;43.838;2023-04-01T04:39:55;12.30;;;8.63;;
63945;SDS011;50122;56.330;43.838;2023-04-01T04:42:22;12.57;;;7.93;;
63945;SDS011;50122;56.330;43.838;2023-04-01T04:44:49;11.10;;;8.05;;
63945;SDS011;50122;56.330;43.838;2023-04-01T04:47:16;12.95;;;9.27;;
63945;SDS011;50122;56.330;43.838;2023-04-01T04:49:43;14.13;;;9.38;;
63945;SDS011;50122;56.330;43.838;2023-04-01T04:52:09;15.10;;;10.00;;
63945;SDS011;50122;56.330;43.838;2023-04-01T04:54:36;15.98;;;10.98;;
63945;SDS011;50122;56.330;43.838;2023-04-01T04:57:02;12.90;;;8.55;;
63945;SDS011;50122;56.330;43.838;2023-04-01T04:59:30;12.95;;;8.73;;
63945;SDS011;50122;56.330;43.838;2023-04-01T05:01:57;12.38;;;8.95;;
63945;SDS011;50122;56.330;43.838;2023-04-01T05:04:23;12.77;;;9.98;;
63945;SDS011;50122;56.330;43.838;2023-04-01T05:06:50;15.48;;;11.55;;
63945;SDS011;50122;56.330;43.838;2023-04-01T05:09:18;15.15;;;11.88;;
63945;SDS011;50122;56.330;43.838;2023-04-01T05:11:44;12.63;;;9.27;;
63945;SDS011;50122;56.330;43.838;2023-04-01T05:14:12;14.15;;;9.82;;
63945;SDS011;50122;56.330;43.838;2023-04-01T05:16:41;11.80;;;8.60;;
63945;SDS011;50122;56.330;43.838;2023-04-01T05:19:08;14.38;;;7.93;;
63945;SDS011;50122;56.330;43.838;2023-04-01T05:21:35;12.13;;;8.35;;
63945;SDS011;50122;56.330;43.838;2023-04-01T05:24:01;14.63;;;10.30;;
63945;SDS011;50122;56.330;43.838;2023-04-01T05:26:28;13.52;;;9.75;;
63945;SDS011;50122;56.330;43.838;2023-04-01T05:28:54;17.52;;;12.40;;
63945;SDS011;50122;56.330;43.838;2023-04-01T05:31:21;14.18;;;10.52;;
63945;SDS011;50122;56.330;43.838;2023-04-01T05:33:50;9.93;;;7.65;;
63945;SDS011;50122;56.330;43.838;2023-04-01T05:36:17;10.02;;;7.63;;
63945;SDS011;50122;56.330;43.838;2023-04-01T05:38:45;12.10;;;9.63;;
63945;SDS011;50122;56.330;43.838;2023-04-01T05:41:12;11.68;;;8.75;;
63945;SDS011;50122;56.330;43.838;2023-04-01T05:43:40;12.00;;;8.35;;
63945;SDS011;50122;56.330;43.838;2023-04-01T05:46:09;11.52;;;8.90;;
63945;SDS011;50122;56.330;43.838;2023-04-01T05:48:35;15.75;;;11.35;;
63945;SDS011;50122;56.330;43.838;2023-04-01T05:51:02;10.98;;;8.48;;
63945;SDS011;50122;56.330;43.838;2023-04-01T05:53:31;13.18;;;8.50;;
63945;SDS011;50122;56.330;43.838;2023-04-01T05:56:01;10.23;;;7.55;;
63945;SDS011;50122;56.330;43.838;2023-04-01T05:58:29;10.18;;;6.95;;
63945;SDS011;50122;56.330;43.838;2023-04-01T06:01:01;10.30;;;7.15;;
